Time;durP1;ratioP1;P1;durP2;ratioP2;P2;SDS_P1;SDS_P2;PMS_P1;PMS_P2;Temp;Humidity;BMP_temperature;BMP_pressure;BME280_temperature;BME280_humidity;BME280_pressure;Samples;Min_cycle;Max_cycle;Signal;HPM_P1;HPM_P2
2022/10/19 00:01:02;;;;;;;7.10;0.70;;;11.10;99.90;;;;;;5093711;28;20482;-91
2022/10/19 00:03:28;;;;;;;8.32;1.30;;;11.70;99.90;;;;;;5095063;28;20490;-91
2022/10/19 00:05:54;;;;;;;7.82;1.20;;;12.10;99.90;;;;;;5077026;28;20067;-90
2022/10/19 00:08:20;;;;;;;7.47;1.42;;;11.10;99.90;;;;;;5077519;28;20066;-90
2022/10/19 00:10:45;;;;;;;7.45;1.42;;;11.10;99.90;;;;;;5061287;28;20065;-90
2022/10/19 00:13:11;;;;;;;5.35;1.13;;;11.10;99.90;;;;;;5093220;28;20035;-89
2022/10/19 00:15:41;;;;;;;5.20;1.25;;;11.80;99.90;;;;;;5061310;28;20088;-91
2022/10/19 00:18:07;;;;;;;6.22;0.93;;;11.10;99.90;;;;;;5076408;28;20142;-90
2022/10/19 00:20:35;;;;;;;8.15;1.00;;;11.60;99.90;;;;;;5094949;28;20122;-90
2022/10/19 00:23:01;;;;;;;7.13;1.00;;;11.20;99.90;;;;;;5093676;28;20084;-90
2022/10/19 00:25:27;;;;;;;11.27;1.63;;;11.80;99.90;;;;;;5093624;28;20119;-90
2022/10/19 00:27:55;;;;;;;7.43;0.90;;;11.20;99.90;;;;;;5062191;28;20497;-91
2022/10/19 00:30:21;;;;;;;6.10;0.82;;;11.30;99.90;;;;;;5094435;28;20134;-90
2022/10/19 00:32:47;;;;;;;15.45;1.50;;;11.30;99.90;;;;;;5096265;28;20046;-91
2022/10/19 00:35:13;;;;;;;13.55;1.02;;;11.20;99.90;;;;;;5063440;28;20040;-92
2022/10/19 00:37:38;;;;;;;6.57;0.82;;;12.00;99.90;;;;;;5062891;28;20046;-91
2022/10/19 00:40:05;;;;;;;6.60;1.10;;;11.30;99.90;;;;;;5078714;28;20404;-91
2022/10/19 00:42:30;;;;;;;6.40;1.58;;;11.30;99.90;;;;;;5060544;28;20104;-92
2022/10/19 00:45:00;;;;;;;11.40;1.15;;;11.30;99.90;;;;;;5059877;28;20470;-91
2022/10/19 00:47:26;;;;;;;12.50;2.03;;;11.60;99.90;;;;;;5093066;28;20046;-91
2022/10/19 00:49:53;;;;;;;10.18;1.33;;;11.30;99.90;;;;;;5092715;28;20091;-91
2022/10/19 00:52:21;;;;;;;7.18;1.00;;;12.40;99.90;;;;;;5098715;28;20042;-92
2022/10/19 00:54:49;;;;;;;7.13;1.42;;;11.70;99.90;;;;;;5117531;28;20035;-92
2022/10/19 00:57:15;;;;;;;8.20;1.67;;;11.50;99.90;;;;;;5099003;28;20028;-92
2022/10/19 00:59:43;;;;;;;8.63;0.85;;;12.30;99.90;;;;;;5083670;28;20050;-92
2022/10/19 01:02:09;;;;;;;5.72;0.70;;;11.30;99.90;;;;;;5116920;28;20036;-91
2022/10/19 01:04:38;;;;;;;6.25;1.50;;;12.20;99.90;;;;;;5099254;28;20032;-92
2022/10/19 01:07:06;;;;;;;5.97;0.80;;;11.30;99.90;;;;;;5117385;28;20024;-90
2022/10/19 01:09:33;;;;;;;6.60;0.90;;;12.00;99.90;;;;;;5115084;28;20036;-91
2022/10/19 01:12:22;;;;;;;14.50;1.52;;;11.30;99.90;;;;;;5100222;28;20034;-91
2022/10/19 01:14:57;;;;;;;10.20;0.90;;;12.30;99.90;;;;;;5114156;28;20032;-92
2022/10/19 01:17:58;;;;;;;4.78;0.90;;;12.40;99.90;;;;;;5102240;28;20039;-91
2022/10/19 01:20:56;;;;;;;8.82;1.10;;;11.30;99.90;;;;;;5094390;28;20039;-92
2022/10/19 01:23:44;;;;;;;3.15;0.52;;;11.30;99.90;;;;;;5093650;28;20482;-91
2022/10/19 01:26:33;;;;;;;4.32;0.80;;;11.30;99.90;;;;;;5043355;28;20259;-91
2022/10/19 01:29:38;;;;;;;11.57;1.23;;;11.30;99.90;;;;;;5079220;28;20051;-91
2022/10/19 01:32:43;;;;;;;6.40;0.80;;;12.10;99.90;;;;;;5082037;28;20131;-91
2022/10/19 01:35:24;;;;;;;8.93;1.23;;;11.30;99.90;;;;;;5086254;28;20058;-90
2022/10/19 01:38:18;;;;;;;7.60;0.60;;;11.30;99.90;;;;;;5095431;28;20051;-90
2022/10/19 01:40:56;;;;;;;;;;;11.30;99.90;;;;;;5095446;28;20065;-91
2022/10/19 01:43:40;;;;;;;4.57;1.00;;;11.30;99.90;;;;;;5095418;28;19943;-90
2022/10/19 01:46:42;;;;;;;7.18;1.52;;;11.30;99.90;;;;;;5097287;28;20048;-91
2022/10/19 01:49:18;;;;;;;7.10;1.00;;;11.30;99.90;;;;;;5100439;28;20047;-92
2022/10/19 01:51:52;;;;;;;10.35;0.80;;;11.30;99.90;;;;;;5102585;28;20061;-90
2022/10/19 01:54:22;;;;;;;12.73;0.85;;;11.30;99.90;;;;;;5106174;28;20100;-91
2022/10/19 01:56:50;;;;;;;8.38;1.00;;;11.30;99.90;;;;;;5104497;28;20072;-89
2022/10/19 01:59:18;;;;;;;2.53;0.50;;;11.30;99.90;;;;;;5107242;28;20099;-90
2022/10/19 02:01:46;;;;;;;6.57;0.77;;;11.90;99.90;;;;;;5103884;28;20035;-91
2022/10/19 02:04:14;;;;;;;6.60;0.70;;;11.90;99.90;;;;;;5103498;28;20036;-90
2022/10/19 02:06:41;;;;;;;15.10;1.00;;;11.70;99.90;;;;;;5098302;28;20046;-91
2022/10/19 02:09:07;;;;;;;8.80;1.25;;;11.60;99.90;;;;;;5111833;28;20708;-91
2022/10/19 02:11:34;;;;;;;7.00;0.68;;;11.30;99.90;;;;;;5079150;28;20088;-91
2022/10/19 02:14:12;;;;;;;5.85;0.80;;;11.30;99.90;;;;;;5113078;28;20039;-92
2022/10/19 02:16:45;;;;;;;9.88;1.52;;;11.20;99.90;;;;;;5101271;28;20044;-92
2022/10/19 02:19:12;;;;;;;;;;;11.40;99.90;;;;;;5098602;28;20169;-92
2022/10/19 02:21:38;;;;;;;13.43;1.42;;;11.90;99.90;;;;;;5097369;28;19919;-92
2022/10/19 02:24:04;;;;;;;9.60;1.52;;;11.20;99.90;;;;;;5063605;28;20083;-91
2022/10/19 02:26:30;;;;;;;16.00;1.55;;;11.20;99.90;;;;;;5078540;28;20071;-91
2022/10/19 02:28:56;;;;;;;3.30;0.63;;;12.30;99.90;;;;;;5079108;28;20189;-92
2022/10/19 02:31:22;;;;;;;9.95;1.55;;;11.70;99.90;;;;;;5078163;28;20497;-92
2022/10/19 02:33:48;;;;;;;13.00;1.38;;;11.70;99.90;;;;;;5080817;28;20127;-91
2022/10/19 02:36:14;;;;;;;10.40;1.10;;;11.20;99.90;;;;;;5076828;28;20135;-91
2022/10/19 02:38:41;;;;;;;10.38;1.17;;;11.20;99.90;;;;;;5077815;28;20082;-92
2022/10/19 02:41:19;;;;;;;6.75;1.02;;;11.90;99.90;;;;;;5077667;28;20551;-92
2022/10/19 02:43:50;;;;;;;6.80;0.90;;;11.30;99.90;;;;;;5093630;28;20135;-91
2022/10/19 02:46:27;;;;;;;18.20;2.03;;;12.00;99.90;;;;;;5095064;28;20418;-92
2022/10/19 02:48:55;;;;;;;11.27;1.45;;;11.20;99.90;;;;;;5092666;28;20047;-91
2022/10/19 02:51:50;;;;;;;10.70;0.90;;;11.20;99.90;;;;;;5078552;28;20044;-92
2022/10/19 02:54:15;;;;;;;6.63;1.27;;;11.10;99.90;;;;;;5095825;28;20048;-92
2022/10/19 02:56:41;;;;;;;9.07;1.30;;;10.90;99.90;;;;;;5060286;28;20479;-91
2022/10/19 02:59:07;;;;;;;11.30;1.17;;;10.90;99.90;;;;;;5062213;28;20054;-92
2022/10/19 03:01:33;;;;;;;11.07;1.20;;;10.80;99.90;;;;;;5059857;28;20044;-92
2022/10/19 03:03:58;;;;;;;10.38;1.65;;;10.70;99.90;;;;;;5078375;28;20044;-92
2022/10/19 03:06:24;;;;;;;9.75;0.98;;;10.60;99.90;;;;;;5076991;28;20040;-92
2022/10/19 03:08:50;;;;;;;12.25;1.13;;;11.00;99.90;;;;;;5094618;28;20042;-91
2022/10/19 03:11:15;;;;;;;12.60;1.25;;;10.50;99.90;;;;;;5060730;28;20130;-91
2022/10/19 03:13:42;;;;;;;16.25;1.95;;;11.10;99.90;;;;;;5059880;28;20051;-91
2022/10/19 03:16:10;;;;;;;11.57;1.52;;;10.50;99.90;;;;;;5078102;28;20036;-91
2022/10/19 03:18:35;;;;;;;6.65;1.00;;;10.50;99.90;;;;;;5092500;28;20137;-91
2022/10/19 03:21:10;;;;;;;10.45;1.38;;;10.90;99.90;;;;;;5077732;28;20040;-90
2022/10/19 03:23:37;;;;;;;8.10;1.35;;;10.60;99.90;;;;;;5093740;28;20040;-90
2022/10/19 03:26:03;;;;;;;13.38;2.03;;;10.60;99.90;;;;;;5077546;28;20486;-90
2022/10/19 03:28:29;;;;;;;8.65;1.00;;;10.60;99.90;;;;;;5077595;28;20039;-90
2022/10/19 03:30:55;;;;;;;8.35;1.20;;;10.60;99.90;;;;;;5092869;28;20497;-90
2022/10/19 03:33:21;;;;;;;10.40;1.35;;;11.00;99.90;;;;;;5080712;28;20043;-91
2022/10/19 03:35:47;;;;;;;8.00;1.35;;;10.60;99.90;;;;;;5063270;28;20039;-90
2022/10/19 03:38:13;;;;;;;7.03;1.70;;;10.60;99.90;;;;;;5061709;28;20047;-90
2022/10/19 03:40:38;;;;;;;8.05;1.00;;;10.60;99.90;;;;;;5092237;28;20359;-91
2022/10/19 03:43:04;;;;;;;15.98;1.58;;;10.80;99.90;;;;;;5062715;28;20051;-89
2022/10/19 03:45:30;;;;;;;10.35;1.50;;;10.60;99.90;;;;;;5080203;28;20428;-89
2022/10/19 03:47:56;;;;;;;9.35;1.40;;;10.60;99.90;;;;;;5097707;28;20108;-89
2022/10/19 03:50:21;;;;;;;9.98;1.67;;;10.60;99.90;;;;;;5081397;28;20047;-91
2022/10/19 03:52:48;;;;;;;8.95;1.40;;;11.10;99.90;;;;;;5097203;28;20068;-89
2022/10/19 03:55:15;;;;;;;16.20;1.15;;;10.60;99.90;;;;;;5081437;28;20085;-92
2022/10/19 03:57:41;;;;;;;8.63;1.50;;;10.60;99.90;;;;;;5098096;28;20042;-91
2022/10/19 04:00:08;;;;;;;14.70;2.10;;;10.70;99.90;;;;;;5096771;28;20035;-90
2022/10/19 04:02:34;;;;;;;10.18;1.95;;;10.60;99.90;;;;;;5063985;28;20039;-90
2022/10/19 04:05:00;;;;;;;13.10;1.40;;;11.30;99.90;;;;;;5080667;28;20086;-92
2022/10/19 04:07:26;;;;;;;10.85;1.38;;;11.60;99.90;;;;;;5098477;28;20036;-90
2022/10/19 04:09:52;;;;;;;12.95;1.90;;;10.70;99.90;;;;;;5080624;28;20043;-88
2022/10/19 04:12:17;;;;;;;16.80;1.92;;;10.70;99.90;;;;;;5097144;28;20028;-90
2022/10/19 04:14:43;;;;;;;10.32;1.40;;;10.30;99.90;;;;;;5058062;28;20081;-91
2022/10/19 04:17:10;;;;;;;11.02;1.90;;;10.60;99.90;;;;;;5092741;28;20058;-92
2022/10/19 04:19:35;;;;;;;8.02;0.95;;;10.60;99.90;;;;;;5108482;28;20079;-90
2022/10/19 04:22:01;;;;;;;10.40;1.13;;;10.70;99.90;;;;;;5075055;28;20135;-91
2022/10/19 04:24:27;;;;;;;11.20;1.50;;;10.60;99.90;;;;;;5058710;28;20319;-91
2022/10/19 04:26:54;;;;;;;12.38;1.20;;;10.50;99.90;;;;;;5091694;28;20039;-91
2022/10/19 04:29:22;;;;;;;6.68;1.00;;;10.50;99.90;;;;;;5092294;28;20039;-91
2022/10/19 04:31:49;;;;;;;12.10;1.02;;;11.30;99.90;;;;;;5075050;28;20044;-90
2022/10/19 04:34:16;;;;;;;10.63;1.08;;;10.40;99.90;;;;;;5076051;28;20044;-92
2022/10/19 04:36:41;;;;;;;7.35;1.15;;;10.30;99.90;;;;;;5091424;28;20083;-91
2022/10/19 04:39:07;;;;;;;16.02;1.70;;;10.30;99.90;;;;;;5058403;28;20082;-91
2022/10/19 04:41:33;;;;;;;12.80;1.55;;;10.90;99.90;;;;;;5074644;28;20096;-92
2022/10/19 04:44:01;;;;;;;18.92;1.48;;;10.30;99.90;;;;;;5091445;28;20039;-91
2022/10/19 04:46:28;;;;;;;17.83;1.58;;;11.20;99.90;;;;;;5092011;28;20043;-92
2022/10/19 04:48:56;;;;;;;18.48;2.00;;;10.20;99.90;;;;;;5074652;28;20122;-91
2022/10/19 04:51:23;;;;;;;7.68;1.17;;;11.10;99.90;;;;;;5092684;28;20558;-92
2022/10/19 04:53:48;;;;;;;7.75;1.70;;;10.30;99.90;;;;;;5075443;28;20595;-93
2022/10/19 04:56:25;;;;;;;8.60;0.98;;;10.20;99.90;;;;;;5059014;28;20032;-92
2022/10/19 04:58:54;;;;;;;12.73;1.35;;;10.20;99.90;;;;;;5091885;28;20050;-91
2022/10/19 05:01:21;;;;;;;7.25;1.25;;;10.30;99.90;;;;;;5091555;28;20103;-89
2022/10/19 05:03:47;;;;;;;11.63;1.40;;;10.90;99.90;;;;;;5075636;28;20482;-91
2022/10/19 05:06:14;;;;;;;6.28;0.98;;;11.00;99.90;;;;;;5091657;28;20072;-92
2022/10/19 05:08:40;;;;;;;13.48;1.33;;;10.20;99.90;;;;;;5075933;28;20044;-92
2022/10/19 05:11:11;;;;;;;12.48;1.58;;;10.30;99.90;;;;;;5077656;28;20036;-92
2022/10/19 05:13:37;;;;;;;8.45;1.05;;;10.20;99.90;;;;;;5101412;28;20040;-89
2022/10/19 05:16:05;;;;;;;14.10;1.60;;;10.30;99.90;;;;;;5103124;28;20083;-91
2022/10/19 05:18:31;;;;;;;9.85;1.15;;;10.30;99.90;;;;;;5100286;28;20039;-96
2022/10/19 05:21:06;;;;;;;11.63;2.23;;;11.00;99.90;;;;;;5089494;28;20072;-96
2022/10/19 05:23:33;;;;;;;7.88;1.35;;;10.30;99.90;;;;;;5112325;28;20147;-94
2022/10/19 05:26:07;;;;;;;9.63;1.83;;;11.20;99.90;;;;;;5099833;28;20138;-95
2022/10/19 05:28:34;;;;;;;10.85;0.82;;;10.30;99.90;;;;;;5114698;28;20035;-91
2022/10/19 05:31:12;;;;;;;10.40;1.73;;;11.20;99.90;;;;;;5096455;28;20035;-91
2022/10/19 05:33:38;;;;;;;12.85;1.40;;;10.40;99.90;;;;;;5095623;28;20549;-92
2022/10/19 05:36:16;;;;;;;7.18;1.45;;;11.50;99.90;;;;;;5095103;28;20049;-89
2022/10/19 05:38:44;;;;;;;18.63;1.50;;;10.40;99.90;;;;;;5094331;28;20070;-87
2022/10/19 05:41:10;;;;;;;8.88;1.20;;;10.80;99.90;;;;;;5077287;28;20048;-88
2022/10/19 05:43:36;;;;;;;9.98;1.30;;;11.50;99.90;;;;;;5093936;28;20527;-89
2022/10/19 05:46:11;;;;;;;10.95;1.75;;;11.30;99.90;;;;;;5094026;28;20039;-88
2022/10/19 05:48:38;;;;;;;10.30;1.67;;;10.50;99.90;;;;;;5111394;28;20044;-88
2022/10/19 05:51:05;;;;;;;12.00;1.80;;;10.50;99.90;;;;;;5112713;28;20039;-91
2022/10/19 05:53:31;;;;;;;18.17;1.42;;;10.50;99.90;;;;;;5078845;28;20462;-94
2022/10/19 05:55:57;;;;;;;8.65;1.17;;;10.50;99.90;;;;;;5078282;28;20047;-93
2022/10/19 05:58:24;;;;;;;7.57;1.10;;;10.90;99.90;;;;;;5095220;28;20044;-90
2022/10/19 06:00:54;;;;;;;11.50;1.73;;;10.50;99.90;;;;;;5094516;28;20035;-90
2022/10/19 06:03:20;;;;;;;11.55;1.73;;;10.50;99.90;;;;;;5095622;28;20100;-93
2022/10/19 06:05:48;;;;;;;12.77;1.75;;;11.10;99.90;;;;;;5079245;28;20047;-91
2022/10/19 06:08:14;;;;;;;16.45;1.60;;;10.50;99.90;;;;;;5095344;28;20128;-94
2022/10/19 06:10:40;;;;;;;10.25;1.20;;;10.60;99.90;;;;;;5080130;28;20042;-90
2022/10/19 06:13:06;;;;;;;11.30;1.35;;;11.10;99.90;;;;;;5111067;28;20051;-90
2022/10/19 06:15:34;;;;;;;15.05;1.80;;;11.20;99.90;;;;;;5077113;28;20044;-91
2022/10/19 06:18:00;;;;;;;9.45;1.17;;;11.70;99.90;;;;;;5061343;28;20513;-90
2022/10/19 06:20:28;;;;;;;7.45;0.90;;;10.60;99.90;;;;;;5076780;28;20067;-90
2022/10/19 06:22:54;;;;;;;9.98;1.65;;;11.50;99.90;;;;;;5060995;28;20051;-90
2022/10/19 06:25:20;;;;;;;12.98;1.75;;;11.50;99.90;;;;;;5076428;28;20048;-90
2022/10/19 06:27:46;;;;;;;5.63;0.88;;;10.70;99.90;;;;;;5094415;28;20043;-90
2022/10/19 06:30:12;;;;;;;9.57;1.15;;;10.70;99.90;;;;;;5060341;28;20081;-90
2022/10/19 06:32:38;;;;;;;9.60;0.95;;;10.70;99.90;;;;;;5095910;28;20100;-96
2022/10/19 06:35:04;;;;;;;8.38;1.38;;;10.70;99.90;;;;;;5094941;28;20035;-95
2022/10/19 06:37:30;;;;;;;11.20;1.17;;;10.70;99.90;;;;;;5095745;28;20131;-96
2022/10/19 06:39:56;;;;;;;9.65;1.25;;;10.70;99.90;;;;;;5096419;28;20135;-94
2022/10/19 06:42:22;;;;;;;8.13;1.23;;;10.80;99.90;;;;;;5078366;28;20075;-86
2022/10/19 06:44:47;;;;;;;8.88;1.00;;;10.80;99.90;;;;;;5114536;28;20122;-95
2022/10/19 06:47:14;;;;;;;7.03;1.23;;;11.20;99.90;;;;;;5061965;28;20036;-96
2022/10/19 06:49:45;;;;;;;4.17;0.67;;;10.90;99.90;;;;;;5096915;28;20092;-96
2022/10/19 06:52:11;;;;;;;8.70;1.42;;;10.90;99.90;;;;;;5062577;28;20470;-95
2022/10/19 06:54:37;;;;;;;8.77;1.38;;;10.90;99.90;;;;;;5061353;28;20050;-91
2022/10/19 06:57:03;;;;;;;16.38;1.50;;;10.90;99.90;;;;;;5078601;28;20108;-95
2022/10/19 06:59:28;;;;;;;6.00;0.90;;;10.90;99.90;;;;;;5078360;28;20039;-95
2022/10/19 07:01:54;;;;;;;7.60;1.30;;;10.90;99.90;;;;;;5064637;28;20043;-96
2022/10/19 07:04:20;;;;;;;8.80;2.00;;;11.00;99.90;;;;;;5068509;28;20040;-91
2022/10/19 07:06:45;;;;;;;12.13;1.90;;;10.90;99.90;;;;;;5096077;28;20071;-93
2022/10/19 07:09:11;;;;;;;16.42;1.40;;;11.00;99.90;;;;;;5065236;28;20040;-93
2022/10/19 07:11:37;;;;;;;10.38;1.27;;;11.00;99.90;;;;;;5083177;28;20058;-93
2022/10/19 07:14:03;;;;;;;15.02;1.10;;;11.00;99.90;;;;;;5065704;28;20181;-93
2022/10/19 07:16:28;;;;;;;10.65;1.45;;;11.20;99.90;;;;;;5063819;28;20240;-91
2022/10/19 07:18:54;;;;;;;9.32;1.27;;;11.50;99.90;;;;;;5064839;28;20047;-92
2022/10/19 07:21:22;;;;;;;9.60;2.20;;;11.10;99.90;;;;;;5062998;28;20066;-92
2022/10/19 07:23:48;;;;;;;15.18;1.92;;;11.10;99.90;;;;;;5082143;28;20220;-93
2022/10/19 07:26:22;;;;;;;9.00;1.65;;;11.20;99.90;;;;;;5097804;28;20047;-91
2022/10/19 07:28:49;;;;;;;11.25;1.70;;;11.20;99.90;;;;;;5098031;28;20135;-93
2022/10/19 07:31:19;;;;;;;7.88;1.33;;;12.40;99.90;;;;;;5080703;28;20047;-92
2022/10/19 07:33:46;;;;;;;7.32;1.25;;;12.10;99.90;;;;;;5079148;28;20044;-91
2022/10/19 07:36:12;;;;;;;10.05;1.33;;;11.40;99.90;;;;;;5095246;28;20087;-92
2022/10/19 07:38:39;;;;;;;10.55;1.52;;;11.40;99.90;;;;;;5081770;28;20039;-93
2022/10/19 07:41:13;;;;;;;11.10;1.40;;;11.50;99.90;;;;;;5099458;28;20055;-93
2022/10/19 07:43:40;;;;;;;14.30;1.58;;;12.40;99.90;;;;;;5097275;28;20051;-95
2022/10/19 07:46:08;;;;;;;13.82;1.38;;;11.60;99.90;;;;;;5097063;28;20075;-92
2022/10/19 07:48:34;;;;;;;8.38;1.48;;;11.60;99.90;;;;;;5083432;28;20036;-92
2022/10/19 07:51:01;;;;;;;10.18;1.10;;;12.60;99.90;;;;;;5102422;28;20040;-94
2022/10/19 07:53:27;;;;;;;11.73;1.27;;;11.80;99.90;;;;;;5101207;28;20093;-93
2022/10/19 07:55:53;;;;;;;10.15;1.33;;;11.70;99.90;;;;;;5078777;28;20044;-93
2022/10/19 07:58:19;;;;;;;11.98;1.65;;;11.80;99.90;;;;;;5092375;28;20044;-92
2022/10/19 08:00:45;;;;;;;5.97;1.00;;;11.90;99.90;;;;;;5060279;28;20044;-93
2022/10/19 08:03:10;;;;;;;9.85;1.27;;;12.80;99.90;;;;;;5061459;28;20048;-93
2022/10/19 08:05:36;;;;;;;10.65;1.08;;;12.00;99.90;;;;;;5060724;28;20044;-93
2022/10/19 08:08:02;;;;;;;13.88;1.65;;;12.00;99.90;;;;;;5059998;28;20096;-93
2022/10/19 08:10:28;;;;;;;10.10;1.65;;;12.10;99.90;;;;;;5074763;28;20075;-93
2022/10/19 08:12:54;;;;;;;10.75;1.20;;;12.20;99.90;;;;;;5092173;28;20047;-95
2022/10/19 08:15:19;;;;;;;10.40;1.50;;;12.80;99.90;;;;;;5058338;28;20039;-93
2022/10/19 08:17:45;;;;;;;6.68;1.17;;;12.30;99.90;;;;;;5074605;28;20039;-94
2022/10/19 08:20:11;;;;;;;7.95;1.27;;;12.80;99.90;;;;;;5058104;28;20134;-93
2022/10/19 08:22:36;;;;;;;12.65;1.60;;;12.40;99.90;;;;;;5058214;28;20047;-93
2022/10/19 08:25:03;;;;;;;6.20;1.30;;;12.50;99.90;;;;;;5058053;28;20490;-94
2022/10/19 08:27:29;;;;;;;9.30;1.38;;;12.50;99.90;;;;;;5074230;28;20039;-94
2022/10/19 08:29:55;;;;;;;14.25;2.35;;;13.00;99.90;;;;;;5057835;28;20090;-93
2022/10/19 08:32:20;;;;;;;10.85;1.38;;;12.50;99.90;;;;;;5074024;28;20055;-94
2022/10/19 08:34:46;;;;;;;14.25;2.00;;;12.60;99.90;;;;;;5092309;28;20172;-95
2022/10/19 08:37:15;;;;;;;10.18;1.90;;;12.60;99.90;;;;;;5084778;28;20044;-93
2022/10/19 08:39:40;;;;;;;13.00;1.88;;;12.70;99.90;;;;;;5084163;28;20047;-92
2022/10/19 08:42:22;;;;;;;7.85;1.10;;;12.70;99.90;;;;;;5085222;28;20377;-93
2022/10/19 08:45:06;;;;;;;14.20;1.83;;;12.80;99.90;;;;;;5101844;28;20082;-91
2022/10/19 08:48:25;;;;;;;7.03;1.20;;;12.80;99.90;;;;;;5101327;28;20078;-93
2022/10/19 08:51:05;;;;;;;10.95;1.33;;;12.80;99.90;;;;;;5067132;28;20049;-96
2022/10/19 08:53:54;;;;;;;17.10;1.50;;;12.20;99.90;;;;;;5102824;28;20066;-95
2022/10/19 08:56:35;;;;;;;11.88;1.17;;;13.70;99.90;;;;;;5093245;28;20044;-87
2022/10/19 08:59:10;;;;;;;11.30;1.67;;;13.00;99.90;;;;;;5074047;28;20357;-88
2022/10/19 09:01:41;;;;;;;12.23;1.73;;;13.60;99.90;;;;;;5089484;28;20069;-88
2022/10/19 09:04:16;;;;;;;10.40;1.35;;;13.10;99.90;;;;;;5090052;28;20040;-88
2022/10/19 09:06:55;;;;;;;6.50;1.33;;;13.10;99.90;;;;;;5089042;28;20055;-87
2022/10/19 09:09:22;;;;;;;10.18;1.05;;;13.20;99.90;;;;;;5088652;28;20494;-87
2022/10/19 09:11:51;;;;;;;9.13;1.05;;;13.20;99.90;;;;;;5089032;28;20069;-88
2022/10/19 09:14:49;;;;;;;8.88;1.25;;;13.30;99.90;;;;;;5105211;28;20059;-86
2022/10/19 09:17:16;;;;;;;12.35;1.73;;;13.40;99.90;;;;;;5084373;28;20047;-89
2022/10/19 09:19:41;;;;;;;10.32;1.30;;;13.50;99.90;;;;;;5088573;28;20494;-87
2022/10/19 09:22:18;;;;;;;8.20;1.15;;;13.50;99.90;;;;;;5106307;28;20040;-86
2022/10/19 09:24:49;;;;;;;11.15;1.83;;;13.50;99.90;;;;;;5090006;28;20096;-94
2022/10/19 09:27:28;;;;;;;7.38;1.02;;;13.80;99.90;;;;;;5090981;28;20043;-93
2022/10/19 09:29:57;;;;;;;10.57;1.33;;;13.60;99.90;;;;;;5091116;28;20046;-92
2022/10/19 09:32:32;;;;;;;14.77;1.30;;;13.60;99.90;;;;;;5090105;28;20601;-93
2022/10/19 09:35:20;;;;;;;10.35;1.40;;;13.60;99.90;;;;;;5093489;28;20054;-93
2022/10/19 09:37:49;;;;;;;10.93;1.80;;;13.60;99.90;;;;;;5090923;28;20039;-92
2022/10/19 09:40:24;;;;;;;10.15;1.38;;;14.00;99.90;;;;;;5094304;28;20062;-92
2022/10/19 09:42:55;;;;;;;11.70;1.10;;;13.70;99.90;;;;;;5094084;28;20082;-93
2022/10/19 09:45:48;;;;;;;6.13;0.95;;;14.00;99.90;;;;;;5062148;28;20051;-93
2022/10/19 09:48:47;;;;;;;7.27;1.10;;;13.70;99.90;;;;;;5093627;28;20050;-92
2022/10/19 09:51:15;;;;;;;9.57;1.00;;;13.70;99.90;;;;;;5082170;28;20313;-91
2022/10/19 09:53:54;;;;;;;4.40;0.90;;;13.70;99.90;;;;;;5089593;28;20259;-93
2022/10/19 09:56:39;;;;;;;6.30;0.98;;;14.60;99.90;;;;;;5075431;28;20043;-93
2022/10/19 09:59:20;;;;;;;4.93;0.80;;;13.70;99.90;;;;;;5077093;28;20048;-93
2022/10/19 10:01:45;;;;;;;7.35;0.90;;;14.00;99.90;;;;;;5092363;28;20040;-93
2022/10/19 10:04:16;;;;;;;6.25;0.80;;;13.70;99.90;;;;;;5060420;28;20054;-92
2022/10/19 10:06:46;;;;;;;7.25;0.95;;;13.70;99.90;;;;;;5093086;28;20047;-91
2022/10/19 10:09:23;;;;;;;14.27;1.40;;;13.60;99.90;;;;;;5077009;28;20055;-93
2022/10/19 10:11:50;;;;;;;16.70;1.15;;;13.60;99.90;;;;;;5093583;28;20040;-93
2022/10/19 10:14:31;;;;;;;9.77;1.20;;;13.60;99.90;;;;;;5076808;28;20119;-93
2022/10/19 10:17:02;;;;;;;9.63;1.48;;;14.80;99.90;;;;;;5100838;28;20036;-93
2022/10/19 10:19:31;;;;;;;10.90;1.10;;;13.60;99.90;;;;;;5116722;28;20032;-90
2022/10/19 10:21:58;;;;;;;12.27;1.70;;;13.70;99.90;;;;;;5100065;28;20024;-93
2022/10/19 10:24:32;;;;;;;10.07;1.83;;;13.80;99.90;;;;;;5114840;28;20137;-89
2022/10/19 10:27:03;;;;;;;8.95;1.30;;;13.40;99.90;;;;;;5107198;28;20505;-87
2022/10/19 10:29:31;;;;;;;12.40;1.55;;;13.70;99.90;;;;;;5114048;28;20035;-88
2022/10/19 10:32:15;;;;;;;5.35;0.95;;;14.20;99.90;;;;;;5132185;28;20043;-88
2022/10/19 10:35:04;;;;;;;7.43;1.23;;;13.80;99.90;;;;;;5116386;28;20111;-88
2022/10/19 10:37:44;;;;;;;6.50;1.00;;;13.90;99.90;;;;;;5116368;28;20024;-88
2022/10/19 10:40:28;;;;;;;14.15;1.10;;;13.90;99.90;;;;;;5114797;28;20042;-88
2022/10/19 10:42:57;;;;;;;10.57;1.17;;;13.90;99.90;;;;;;5114613;28;20031;-88
2022/10/19 10:45:29;;;;;;;10.07;1.73;;;14.10;99.90;;;;;;5116314;28;20044;-89
2022/10/19 10:47:56;;;;;;;8.73;1.40;;;14.00;99.90;;;;;;5094014;28;20043;-88
2022/10/19 10:50:33;;;;;;;8.60;1.20;;;14.00;99.90;;;;;;5077683;28;20375;-89
2022/10/19 10:53:05;;;;;;;4.78;0.93;;;15.10;99.90;;;;;;5110568;28;20044;-89
2022/10/19 10:55:32;;;;;;;5.65;0.82;;;14.10;99.90;;;;;;5094466;28;20036;-89
2022/10/19 10:58:36;;;;;;;8.32;1.13;;;14.20;99.90;;;;;;5089837;28;20039;-96
2022/10/19 11:01:16;;;;;;;11.35;1.13;;;14.30;99.90;;;;;;5115150;28;20118;-96
2022/10/19 11:03:49;;;;;;;4.63;0.70;;;14.30;99.90;;;;;;5101369;28;20071;-96
2022/10/19 11:06:18;;;;;;;6.85;1.23;;;14.30;99.90;;;;;;5101218;28;20049;-96
2022/10/19 11:09:30;;;;;;;10.23;1.50;;;14.30;99.90;;;;;;5108538;28;20046;-96
2022/10/19 11:12:07;;;;;;;13.98;1.55;;;14.40;99.90;;;;;;5079581;28;20062;-95
2022/10/19 11:14:45;;;;;;;5.90;0.93;;;14.40;99.90;;;;;;5112105;28;20052;-94
2022/10/19 11:17:22;;;;;;;6.15;1.45;;;14.50;99.90;;;;;;5097423;28;20505;-95
2022/10/19 11:19:50;;;;;;;10.05;1.25;;;14.60;99.90;;;;;;5097048;28;20040;-94
2022/10/19 11:22:42;;;;;;;5.80;1.05;;;14.70;99.90;;;;;;5066908;28;20047;-95
2022/10/19 11:25:10;;;;;;;5.20;0.98;;;14.70;99.90;;;;;;5099524;28;20067;-96
2022/10/19 11:27:39;;;;;;;10.10;1.40;;;14.70;99.90;;;;;;5104277;28;20422;-94
2022/10/19 11:30:22;;;;;;;6.28;1.05;;;14.70;99.90;;;;;;5104728;28;20498;-95
2022/10/19 11:33:06;;;;;;;5.38;0.88;;;14.70;99.90;;;;;;5104535;28;20050;-94
2022/10/19 11:35:40;;;;;;;12.55;1.48;;;14.70;99.90;;;;;;5120027;28;20358;-95
2022/10/19 11:38:25;;;;;;;5.75;1.02;;;14.80;99.90;;;;;;5116156;28;20039;-95
2022/10/19 11:41:20;;;;;;;12.57;1.75;;;14.20;99.90;;;;;;5098859;28;20105;-95
2022/10/19 11:44:12;;;;;;;7.72;1.25;;;14.70;99.90;;;;;;5102202;28;20136;-94
2022/10/19 11:46:38;;;;;;;11.60;1.38;;;14.80;99.90;;;;;;5057499;28;20051;-94
2022/10/19 11:49:37;;;;;;;6.18;0.85;;;14.70;99.90;;;;;;5099866;28;20035;-94
2022/10/19 11:52:22;;;;;;;10.57;1.17;;;14.70;99.90;;;;;;5093379;28;20049;-95
2022/10/19 11:55:08;;;;;;;9.82;1.45;;;14.70;99.90;;;;;;5095243;28;20036;-93
2022/10/19 11:57:47;;;;;;;7.03;1.00;;;14.60;99.90;;;;;;5055592;28;20044;-94
2022/10/19 12:00:20;;;;;;;9.80;1.15;;;14.50;99.90;;;;;;5113111;28;20044;-95
2022/10/19 12:03:01;;;;;;;8.57;1.25;;;14.40;99.90;;;;;;5106856;28;20059;-94
2022/10/19 12:05:37;;;;;;;10.38;1.23;;;14.40;99.90;;;;;;5097171;28;20040;-95
2022/10/19 12:08:27;;;;;;;9.10;1.55;;;14.50;99.90;;;;;;5099199;28;20044;-94
2022/10/19 12:11:26;;;;;;;5.80;0.65;;;14.60;99.90;;;;;;5121326;28;20505;-93
2022/10/19 12:14:11;;;;;;;15.48;1.90;;;14.80;99.90;;;;;;5103129;28;20047;-94
2022/10/19 12:16:41;;;;;;;9.05;1.38;;;15.70;99.90;;;;;;5102593;28;20096;-94
2022/10/19 12:19:15;;;;;;;6.97;1.17;;;14.90;99.90;;;;;;5103269;28;20047;-95
2022/10/19 12:21:44;;;;;;;11.25;1.95;;;15.00;99.90;;;;;;5099404;28;20039;-88
2022/10/19 12:24:24;;;;;;;13.45;1.92;;;15.10;99.90;;;;;;5116693;28;20043;-93
2022/10/19 12:26:51;;;;;;;6.97;1.15;;;15.10;99.90;;;;;;5096826;28;20039;-93
2022/10/19 12:29:24;;;;;;;8.60;1.10;;;15.20;99.90;;;;;;5080288;28;20039;-94
2022/10/19 12:31:53;;;;;;;7.55;1.45;;;15.20;99.90;;;;;;5094518;28;20486;-93
2022/10/19 12:34:58;;;;;;;13.07;1.35;;;15.20;99.90;;;;;;5093127;28;20035;-93
2022/10/19 12:37:37;;;;;;;10.00;1.25;;;15.20;99.90;;;;;;5091977;28;20040;-91
2022/10/19 12:40:18;;;;;;;4.82;0.80;;;15.00;99.90;;;;;;5094296;28;20498;-92
2022/10/19 12:42:55;;;;;;;7.50;1.27;;;14.80;99.90;;;;;;5070553;28;20103;-92
2022/10/19 12:45:33;;;;;;;8.70;1.17;;;14.70;99.90;;;;;;5090974;28;20116;-93
2022/10/19 12:48:08;;;;;;;8.80;1.00;;;15.40;99.90;;;;;;5090993;28;20040;-93
2022/10/19 12:50:49;;;;;;;11.95;1.30;;;14.90;99.90;;;;;;5090240;28;20039;-92
2022/10/19 12:53:37;;;;;;;3.53;0.85;;;15.50;99.90;;;;;;5091947;28;20104;-94
2022/10/19 12:56:08;;;;;;;8.77;1.90;;;15.40;99.90;;;;;;5090215;28;20047;-94
2022/10/19 12:58:43;;;;;;;9.63;1.27;;;15.70;99.90;;;;;;5089917;28;20569;-95
2022/10/19 13:01:47;;;;;;;6.45;0.90;;;15.80;99.90;;;;;;5089361;28;20043;-92
2022/10/19 13:04:28;;;;;;;6.22;1.38;;;15.80;99.90;;;;;;5088635;28;20052;-91
2022/10/19 13:07:04;;;;;;;6.65;1.20;;;15.70;99.90;;;;;;5090557;28;20044;-92